sensor_id;sensor_type;location;lat;lon;timestamp;pressure;altitude;pressure_sealevel;temperature;humidity
38880;BME280;25887;30.194;-97.880;2023-01-28T00:00:33;99156.56;;;15.13;38.34
38880;BME280;25887;30.194;-97.880;2023-01-28T00:02:59;99160.88;;;15.10;38.32
38880;BME280;25887;30.194;-97.880;2023-01-28T00:05:25;99165.22;;;15.06;38.54
38880;BME280;25887;30.194;-97.880;2023-01-28T00:08:06;99172.16;;;15.04;38.24
38880;BME280;25887;30.194;-97.880;2023-01-28T00:10:32;99158.34;;;15.00;38.51
38880;BME280;25887;30.194;-97.880;2023-01-28T00:13:19;99150.63;;;14.97;38.57
38880;BME280;25887;30.194;-97.880;2023-01-28T00:15:45;99155.81;;;14.94;38.54
38880;BME280;25887;30.194;-97.880;2023-01-28T00:18:19;99163.56;;;14.91;38.51
38880;BME280;25887;30.194;-97.880;2023-01-28T00:20:54;99166.19;;;14.88;38.49
38880;BME280;25887;30.194;-97.880;2023-01-28T00:23:20;99165.31;;;14.86;38.57
38880;BME280;25887;30.194;-97.880;2023-01-28T00:25:46;99164.47;;;14.84;38.76
38880;BME280;25887;30.194;-97.880;2023-01-28T00:28:11;99165.34;;;14.83;38.72
38880;BME280;25887;30.194;-97.880;2023-01-28T00:30:37;99170.53;;;14.80;38.69
38880;BME280;25887;30.194;-97.880;2023-01-28T00:33:03;99169.66;;;14.78;38.59
38880;BME280;25887;30.194;-97.880;2023-01-28T00:35:29;99172.25;;;14.76;38.77
38880;BME280;25887;30.194;-97.880;2023-01-28T00:37:55;99167.09;;;14.75;38.85
38880;BME280;25887;30.194;-97.880;2023-01-28T00:40:20;99171.41;;;14.76;38.68
38880;BME280;25887;30.194;-97.880;2023-01-28T00:42:46;99173.16;;;14.74;38.90
38880;BME280;25887;30.194;-97.880;2023-01-28T00:45:12;99162.81;;;14.74;38.69
38880;BME280;25887;30.194;-97.880;2023-01-28T00:47:38;99168.84;;;14.73;38.74
38880;BME280;25887;30.194;-97.880;2023-01-28T00:50:04;99167.13;;;14.73;39.02
38880;BME280;25887;30.194;-97.880;2023-01-28T00:52:30;99165.38;;;14.74;38.75
38880;BME280;25887;30.194;-97.880;2023-01-28T00:54:56;99159.38;;;14.72;38.82
38880;BME280;25887;30.194;-97.880;2023-01-28T00:57:21;99168.84;;;14.71;38.84
38880;BME280;25887;30.194;-97.880;2023-01-28T00:59:47;99165.41;;;14.69;38.91
38880;BME280;25887;30.194;-97.880;2023-01-28T01:02:13;99178.34;;;14.68;38.89
38880;BME280;25887;30.194;-97.880;2023-01-28T01:04:39;99173.19;;;14.65;39.11
38880;BME280;25887;30.194;-97.880;2023-01-28T01:07:07;99173.19;;;14.62;39.23
38880;BME280;25887;30.194;-97.880;2023-01-28T01:09:32;99176.63;;;14.61;38.97
38880;BME280;25887;30.194;-97.880;2023-01-28T01:12:18;99175.78;;;14.60;38.91
38880;BME280;25887;30.194;-97.880;2023-01-28T01:14:44;99185.28;;;14.60;39.00
38880;BME280;25887;30.194;-97.880;2023-01-28T01:17:10;99180.97;;;14.59;39.15
38880;BME280;25887;30.194;-97.880;2023-01-28T01:19:49;99176.66;;;14.58;39.01
38880;BME280;25887;30.194;-97.880;2023-01-28T01:24:59;99176.69;;;14.52;39.13
38880;BME280;25887;30.194;-97.880;2023-01-28T01:27:25;99170.66;;;14.48;39.24
38880;BME280;25887;30.194;-97.880;2023-01-28T01:29:51;99165.44;;;14.45;39.36
38880;BME280;25887;30.194;-97.880;2023-01-28T01:32:17;99180.97;;;14.45;38.96
38880;BME280;25887;30.194;-97.880;2023-01-28T01:34:43;99181.84;;;14.42;39.17
38880;BME280;25887;30.194;-97.880;2023-01-28T01:37:09;99186.16;;;14.42;39.11
38880;BME280;25887;30.194;-97.880;2023-01-28T01:40:03;99185.31;;;14.41;39.20
38880;BME280;25887;30.194;-97.880;2023-01-28T01:42:30;99182.72;;;14.40;39.19
38880;BME280;25887;30.194;-97.880;2023-01-28T01:47:39;99187.03;;;14.36;39.31
38880;BME280;25887;30.194;-97.880;2023-01-28T01:50:08;99187.03;;;14.33;39.60
38880;BME280;25887;30.194;-97.880;2023-01-28T01:52:37;99191.34;;;14.31;39.55
38880;BME280;25887;30.194;-97.880;2023-01-28T01:55:29;99189.63;;;14.29;39.18
38880;BME280;25887;30.194;-97.880;2023-01-28T01:57:56;99187.06;;;14.26;39.29
38880;BME280;25887;30.194;-97.880;2023-01-28T02:00:23;99187.03;;;14.22;39.32
38880;BME280;25887;30.194;-97.880;2023-01-28T02:02:49;99183.63;;;14.20;39.46
38880;BME280;25887;30.194;-97.880;2023-01-28T02:05:17;99185.34;;;14.17;39.54
38880;BME280;25887;30.194;-97.880;2023-01-28T02:07:44;99184.47;;;14.15;39.48
38880;BME280;25887;30.194;-97.880;2023-01-28T02:10:10;99179.31;;;14.13;39.66
38880;BME280;25887;30.194;-97.880;2023-01-28T02:12:38;99176.75;;;14.12;39.74
38880;BME280;25887;30.194;-97.880;2023-01-28T02:15:09;99178.47;;;14.10;39.67
38880;BME280;25887;30.194;-97.880;2023-01-28T02:17:36;99177.63;;;14.09;39.72
38880;BME280;25887;30.194;-97.880;2023-01-28T02:20:22;99171.59;;;14.09;39.64
38880;BME280;25887;30.194;-97.880;2023-01-28T02:25:31;99169.00;;;14.04;39.64
38880;BME280;25887;30.194;-97.880;2023-01-28T02:31:00;99164.69;;;14.03;39.65
38880;BME280;25887;30.194;-97.880;2023-01-28T02:33:38;99169.88;;;14.03;39.70
38880;BME280;25887;30.194;-97.880;2023-01-28T02:36:47;99152.63;;;14.01;39.99
38880;BME280;25887;30.194;-97.880;2023-01-28T02:39:28;99151.78;;;13.99;40.15
38880;BME280;25887;30.194;-97.880;2023-01-28T02:42:05;99150.06;;;13.98;39.72
38880;BME280;25887;30.194;-97.880;2023-01-28T02:44:32;99156.94;;;13.97;39.85
38880;BME280;25887;30.194;-97.880;2023-01-28T02:46:58;99158.66;;;13.98;39.90
38880;BME280;25887;30.194;-97.880;2023-01-28T02:49:47;99156.06;;;14.00;40.14
38880;BME280;25887;30.194;-97.880;2023-01-28T02:55:21;99144.03;;;13.99;40.06
38880;BME280;25887;30.194;-97.880;2023-01-28T03:05:16;99150.03;;;14.07;39.89
38880;BME280;25887;30.194;-97.880;2023-01-28T03:07:46;99146.59;;;14.09;40.25
38880;BME280;25887;30.194;-97.880;2023-01-28T03:10:26;99151.75;;;14.11;40.06
38880;BME280;25887;30.194;-97.880;2023-01-28T03:13:30;99146.59;;;14.12;40.20
38880;BME280;25887;30.194;-97.880;2023-01-28T03:16:15;99144.84;;;14.14;39.99
38880;BME280;25887;30.194;-97.880;2023-01-28T03:18:58;99147.44;;;14.16;40.16
38880;BME280;25887;30.194;-97.880;2023-01-28T03:21:42;99150.00;;;14.16;40.34
38880;BME280;25887;30.194;-97.880;2023-01-28T03:24:34;99147.44;;;14.16;40.32
38880;BME280;25887;30.194;-97.880;2023-01-28T03:27:24;99161.22;;;14.18;40.52
38880;BME280;25887;30.194;-97.880;2023-01-28T03:30:16;99149.16;;;14.17;40.68
38880;BME280;25887;30.194;-97.880;2023-01-28T03:33:02;99152.59;;;14.16;40.68
38880;BME280;25887;30.194;-97.880;2023-01-28T03:35:46;99151.75;;;14.15;40.70
38880;BME280;25887;30.194;-97.880;2023-01-28T03:38:43;99145.72;;;14.15;40.63
38880;BME280;25887;30.194;-97.880;2023-01-28T03:41:33;99141.41;;;14.15;40.79
38880;BME280;25887;30.194;-97.880;2023-01-28T03:44:08;99148.31;;;14.16;41.13
38880;BME280;25887;30.194;-97.880;2023-01-28T03:53:07;99142.25;;;14.16;41.03
38880;BME280;25887;30.194;-97.880;2023-01-28T03:56:17;99132.78;;;14.15;41.36
38880;BME280;25887;30.194;-97.880;2023-01-28T03:59:05;99137.97;;;14.15;41.34
38880;BME280;25887;30.194;-97.880;2023-01-28T04:02:04;99136.25;;;14.12;41.74
38880;BME280;25887;30.194;-97.880;2023-01-28T04:05:29;99145.75;;;14.10;41.83
38880;BME280;25887;30.194;-97.880;2023-01-28T04:11:36;99137.13;;;14.07;41.75
38880;BME280;25887;30.194;-97.880;2023-01-28T04:18:01;99153.47;;;14.06;42.04
38880;BME280;25887;30.194;-97.880;2023-01-28T04:20:47;99144.00;;;14.05;42.09
38880;BME280;25887;30.194;-97.880;2023-01-28T04:23:50;99149.19;;;14.05;42.01
38880;BME280;25887;30.194;-97.880;2023-01-28T04:26:49;99148.31;;;14.04;41.95
38880;BME280;25887;30.194;-97.880;2023-01-28T04:29:39;99143.16;;;14.06;42.30
38880;BME280;25887;30.194;-97.880;2023-01-28T04:39:04;99133.69;;;14.03;42.29
38880;BME280;25887;30.194;-97.880;2023-01-28T04:48:10;99125.06;;;13.98;42.92
38880;BME280;25887;30.194;-97.880;2023-01-28T04:51:32;99119.06;;;13.94;42.76
38880;BME280;25887;30.194;-97.880;2023-01-28T04:57:36;99120.78;;;13.92;42.85
38880;BME280;25887;30.194;-97.880;2023-01-28T05:07:04;99107.88;;;13.89;42.91
38880;BME280;25887;30.194;-97.880;2023-01-28T05:10:09;99104.44;;;13.87;43.18
38880;BME280;25887;30.194;-97.880;2023-01-28T05:15:56;99100.13;;;13.82;43.47
38880;BME280;25887;30.194;-97.880;2023-01-28T05:18:42;99106.19;;;13.79;43.94
38880;BME280;25887;30.194;-97.880;2023-01-28T05:21:08;99101.00;;;13.79;44.03
38880;BME280;25887;30.194;-97.880;2023-01-28T05:23:34;99107.03;;;13.78;43.66
38880;BME280;25887;30.194;-97.880;2023-01-28T05:26:00;99108.78;;;13.78;43.90
38880;BME280;25887;30.194;-97.880;2023-01-28T05:28:25;99100.13;;;13.77;44.08
38880;BME280;25887;30.194;-97.880;2023-01-28T05:30:51;99103.59;;;13.78;44.02
38880;BME280;25887;30.194;-97.880;2023-01-28T05:33:30;99098.44;;;13.78;44.00
38880;BME280;25887;30.194;-97.880;2023-01-28T05:35:55;99093.28;;;13.78;44.13
38880;BME280;25887;30.194;-97.880;2023-01-28T05:38:21;99088.97;;;13.78;44.12
38880;BME280;25887;30.194;-97.880;2023-01-28T05:40:47;99082.06;;;13.77;44.06
38880;BME280;25887;30.194;-97.880;2023-01-28T05:43:27;99084.66;;;13.76;44.57
38880;BME280;25887;30.194;-97.880;2023-01-28T05:45:53;99078.63;;;13.75;44.79
38880;BME280;25887;30.194;-97.880;2023-01-28T05:48:19;99069.16;;;13.74;44.66
38880;BME280;25887;30.194;-97.880;2023-01-28T05:50:47;99077.78;;;13.73;44.88
38880;BME280;25887;30.194;-97.880;2023-01-28T05:53:13;99076.91;;;13.71;44.51
38880;BME280;25887;30.194;-97.880;2023-01-28T05:55:39;99071.75;;;13.71;44.57
38880;BME280;25887;30.194;-97.880;2023-01-28T05:58:05;99064.00;;;13.71;44.49
38880;BME280;25887;30.194;-97.880;2023-01-28T06:00:35;99061.44;;;13.71;44.37
38880;BME280;25887;30.194;-97.880;2023-01-28T06:03:01;99051.09;;;13.71;44.83
38880;BME280;25887;30.194;-97.880;2023-01-28T06:05:27;99052.81;;;13.72;44.59
38880;BME280;25887;30.194;-97.880;2023-01-28T06:07:52;99053.69;;;13.71;44.94
38880;BME280;25887;30.194;-97.880;2023-01-28T06:10:18;99051.09;;;13.71;44.77
38880;BME280;25887;30.194;-97.880;2023-01-28T06:12:44;99050.25;;;13.71;45.07
38880;BME280;25887;30.194;-97.880;2023-01-28T06:15:10;99049.38;;;13.70;44.99
38880;BME280;25887;30.194;-97.880;2023-01-28T06:17:36;99040.78;;;13.70;44.66
38880;BME280;25887;30.194;-97.880;2023-01-28T06:20:34;99033.03;;;13.70;44.90
38880;BME280;25887;30.194;-97.880;2023-01-28T06:23:00;99027.84;;;13.71;44.89
38880;BME280;25887;30.194;-97.880;2023-01-28T06:25:26;99030.44;;;13.73;44.66
38880;BME280;25887;30.194;-97.880;2023-01-28T06:27:51;99025.25;;;13.74;45.08
38880;BME280;25887;30.194;-97.880;2023-01-28T06:30:34;99023.53;;;13.73;44.88
38880;BME280;25887;30.194;-97.880;2023-01-28T06:33:00;99012.38;;;13.71;45.25
38880;BME280;25887;30.194;-97.880;2023-01-28T06:36:02;99001.16;;;13.69;44.99
38880;BME280;25887;30.194;-97.880;2023-01-28T06:38:28;98998.59;;;13.66;45.48
38880;BME280;25887;30.194;-97.880;2023-01-28T06:40:53;98994.31;;;13.65;45.24
38880;BME280;25887;30.194;-97.880;2023-01-28T06:43:21;98991.72;;;13.63;45.28
38880;BME280;25887;30.194;-97.880;2023-01-28T06:45:55;98990.88;;;13.63;45.27
38880;BME280;25887;30.194;-97.880;2023-01-28T06:48:21;98993.44;;;13.63;45.20
38880;BME280;25887;30.194;-97.880;2023-01-28T06:50:47;99001.19;;;13.63;45.38
38880;BME280;25887;30.194;-97.880;2023-01-28T06:53:33;98992.59;;;13.64;44.98
38880;BME280;25887;30.194;-97.880;2023-01-28T06:55:59;98992.59;;;13.64;45.02
38880;BME280;25887;30.194;-97.880;2023-01-28T06:58:25;98984.84;;;13.64;45.13
38880;BME280;25887;30.194;-97.880;2023-01-28T07:00:51;98980.53;;;13.64;45.30
38880;BME280;25887;30.194;-97.880;2023-01-28T07:03:17;98982.25;;;13.64;45.27
38880;BME280;25887;30.194;-97.880;2023-01-28T07:05:43;98972.78;;;13.64;45.24
38880;BME280;25887;30.194;-97.880;2023-01-28T07:08:09;98962.47;;;13.63;45.38
38880;BME280;25887;30.194;-97.880;2023-01-28T07:10:35;98966.78;;;13.64;45.19
38880;BME280;25887;30.194;-97.880;2023-01-28T07:13:01;98959.88;;;13.63;45.43
38880;BME280;25887;30.194;-97.880;2023-01-28T07:15:44;98959.03;;;13.64;45.33
38880;BME280;25887;30.194;-97.880;2023-01-28T07:18:10;98949.56;;;13.63;45.41
38880;BME280;25887;30.194;-97.880;2023-01-28T07:20:36;98964.19;;;13.64;45.18
38880;BME280;25887;30.194;-97.880;2023-01-28T07:23:02;98961.59;;;13.64;45.38
38880;BME280;25887;30.194;-97.880;2023-01-28T07:25:28;98971.06;;;13.63;45.62
38880;BME280;25887;30.194;-97.880;2023-01-28T07:27:54;98959.88;;;13.61;45.94
38880;BME280;25887;30.194;-97.880;2023-01-28T07:30:20;98949.56;;;13.60;45.88
38880;BME280;25887;30.194;-97.880;2023-01-28T07:32:57;98951.28;;;13.58;45.69
38880;BME280;25887;30.194;-97.880;2023-01-28T07:35:23;98950.44;;;13.56;45.99
38880;BME280;25887;30.194;-97.880;2023-01-28T07:37:50;98952.16;;;13.55;45.94
38880;BME280;25887;30.194;-97.880;2023-01-28T07:40:17;98939.25;;;13.54;45.76
38880;BME280;25887;30.194;-97.880;2023-01-28T07:42:42;98953.88;;;13.53;45.68
38880;BME280;25887;30.194;-97.880;2023-01-28T07:45:08;98953.00;;;13.53;45.95
38880;BME280;25887;30.194;-97.880;2023-01-28T07:47:34;98947.84;;;13.51;45.67
38880;BME280;25887;30.194;-97.880;2023-01-28T07:50:00;98949.59;;;13.51;46.08
38880;BME280;25887;30.194;-97.880;2023-01-28T07:55:17;98947.88;;;13.50;46.01
38880;BME280;25887;30.194;-97.880;2023-01-28T07:57:52;98950.44;;;13.51;46.02
38880;BME280;25887;30.194;-97.880;2023-01-28T08:00:19;98954.75;;;13.51;46.15
38880;BME280;25887;30.194;-97.880;2023-01-28T08:02:46;98952.16;;;13.51;45.86
38880;BME280;25887;30.194;-97.880;2023-01-28T08:05:15;98956.47;;;13.52;46.05
38880;BME280;25887;30.194;-97.880;2023-01-28T08:07:41;98956.47;;;13.52;45.77
38880;BME280;25887;30.194;-97.880;2023-01-28T08:10:25;98943.53;;;13.53;45.85
38880;BME280;25887;30.194;-97.880;2023-01-28T08:12:54;98939.25;;;13.52;45.97
38880;BME280;25887;30.194;-97.880;2023-01-28T08:15:39;98933.22;;;13.52;46.23
38880;BME280;25887;30.194;-97.880;2023-01-28T08:18:06;98924.63;;;13.51;46.06
38880;BME280;25887;30.194;-97.880;2023-01-28T08:20:32;98915.16;;;13.50;46.00
38880;BME280;25887;30.194;-97.880;2023-01-28T08:23:11;98911.72;;;13.50;46.17
38880;BME280;25887;30.194;-97.880;2023-01-28T08:25:38;98903.13;;;13.49;46.10
38880;BME280;25887;30.194;-97.880;2023-01-28T08:28:04;98891.09;;;13.50;46.15
38880;BME280;25887;30.194;-97.880;2023-01-28T08:30:30;98879.91;;;13.48;46.26
38880;BME280;25887;30.194;-97.880;2023-01-28T08:32:57;98885.06;;;13.48;46.58
38880;BME280;25887;30.194;-97.880;2023-01-28T08:35:27;98880.78;;;13.47;46.61
38880;BME280;25887;30.194;-97.880;2023-01-28T08:37:53;98869.56;;;13.46;46.53
38880;BME280;25887;30.194;-97.880;2023-01-28T08:40:19;98872.16;;;13.45;46.75
38880;BME280;25887;30.194;-97.880;2023-01-28T08:42:50;98864.41;;;13.45;46.53
38880;BME280;25887;30.194;-97.880;2023-01-28T08:45:17;98861.00;;;13.43;46.81
38880;BME280;25887;30.194;-97.880;2023-01-28T08:48:25;98873.91;;;13.43;46.54
38880;BME280;25887;30.194;-97.880;2023-01-28T08:50:36;98870.47;;;13.42;46.46
38880;BME280;25887;30.194;-97.880;2023-01-28T08:53:02;98869.59;;;13.42;46.59
38880;BME280;25887;30.194;-97.880;2023-01-28T08:55:28;98870.47;;;13.41;46.62
38880;BME280;25887;30.194;-97.880;2023-01-28T08:57:54;98879.94;;;13.42;46.53
38880;BME280;25887;30.194;-97.880;2023-01-28T09:00:20;98864.44;;;13.42;47.01
38880;BME280;25887;30.194;-97.880;2023-01-28T09:02:49;98864.44;;;13.42;46.94
38880;BME280;25887;30.194;-97.880;2023-01-28T09:05:16;98866.16;;;13.43;46.99
38880;BME280;25887;30.194;-97.880;2023-01-28T09:07:42;98868.75;;;13.43;47.02
38880;BME280;25887;30.194;-97.880;2023-01-28T09:10:16;98865.28;;;13.44;47.10
38880;BME280;25887;30.194;-97.880;2023-01-28T09:12:44;98878.19;;;13.45;47.17
38880;BME280;25887;30.194;-97.880;2023-01-28T09:17:59;98867.88;;;13.47;46.87
38880;BME280;25887;30.194;-97.880;2023-01-28T09:20:25;98854.97;;;13.47;46.91
38880;BME280;25887;30.194;-97.880;2023-01-28T09:22:51;98860.13;;;13.47;47.26
38880;BME280;25887;30.194;-97.880;2023-01-28T09:25:17;98856.69;;;13.48;47.21
38880;BME280;25887;30.194;-97.880;2023-01-28T09:27:43;98866.13;;;13.49;47.33
38880;BME280;25887;30.194;-97.880;2023-01-28T09:30:09;98854.09;;;13.49;47.15
38880;BME280;25887;30.194;-97.880;2023-01-28T09:32:48;98862.69;;;13.50;47.39
38880;BME280;25887;30.194;-97.880;2023-01-28T09:35:14;98849.78;;;13.50;47.33
38880;BME280;25887;30.194;-97.880;2023-01-28T09:37:40;98853.22;;;13.52;47.50
38880;BME280;25887;30.194;-97.880;2023-01-28T09:40:06;98844.63;;;13.50;47.21
38880;BME280;25887;30.194;-97.880;2023-01-28T09:50:00;98820.53;;;13.51;47.10
38880;BME280;25887;30.194;-97.880;2023-01-28T09:52:27;98812.78;;;13.51;47.42
38880;BME280;25887;30.194;-97.880;2023-01-28T09:54:57;98823.97;;;13.50;47.37
38880;BME280;25887;30.194;-97.880;2023-01-28T09:57:25;98818.81;;;13.50;47.58
38880;BME280;25887;30.194;-97.880;2023-01-28T09:59:52;98822.25;;;13.50;47.37
38880;BME280;25887;30.194;-97.880;2023-01-28T10:02:40;98821.38;;;13.50;47.58
38880;BME280;25887;30.194;-97.880;2023-01-28T10:10:43;98822.22;;;13.52;47.66
38880;BME280;25887;30.194;-97.880;2023-01-28T10:21:53;98811.06;;;13.50;47.64
38880;BME280;25887;30.194;-97.880;2023-01-28T10:24:39;98800.72;;;13.51;47.91
38880;BME280;25887;30.194;-97.880;2023-01-28T10:29:49;98785.25;;;13.50;47.91
38880;BME280;25887;30.194;-97.880;2023-01-28T10:34:41;98759.44;;;13.50;47.85
38880;BME280;25887;30.194;-97.880;2023-01-28T10:37:08;98765.47;;;13.49;47.57
38880;BME280;25887;30.194;-97.880;2023-01-28T10:39:55;98760.31;;;13.49;47.93
38880;BME280;25887;30.194;-97.880;2023-01-28T10:44:56;98743.97;;;13.48;47.91
38880;BME280;25887;30.194;-97.880;2023-01-28T10:47:44;98736.25;;;13.47;48.09
38880;BME280;25887;30.194;-97.880;2023-01-28T10:50:21;98748.25;;;13.46;47.76
38880;BME280;25887;30.194;-97.880;2023-01-28T10:52:54;98749.97;;;13.46;47.79
38880;BME280;25887;30.194;-97.880;2023-01-28T10:55:23;98756.88;;;13.45;47.91
38880;BME280;25887;30.194;-97.880;2023-01-28T10:57:50;98765.47;;;13.46;47.76
38880;BME280;25887;30.194;-97.880;2023-01-28T11:02:43;98755.16;;;13.46;48.27
38880;BME280;25887;30.194;-97.880;2023-01-28T11:08:13;98770.63;;;13.46;48.06
38880;BME280;25887;30.194;-97.880;2023-01-28T11:10:40;98761.19;;;13.45;48.08
38880;BME280;25887;30.194;-97.880;2023-01-28T11:13:19;98765.47;;;13.46;48.45
38880;BME280;25887;30.194;-97.880;2023-01-28T11:15:46;98759.44;;;13.45;48.33
38880;BME280;25887;30.194;-97.880;2023-01-28T11:18:19;98770.63;;;13.46;48.18
38880;BME280;25887;30.194;-97.880;2023-01-28T11:20:56;98766.31;;;13.46;48.34
38880;BME280;25887;30.194;-97.880;2023-01-28T11:23:26;98764.63;;;13.47;48.49
38880;BME280;25887;30.194;-97.880;2023-01-28T11:26:08;98762.06;;;13.47;48.19
38880;BME280;25887;30.194;-97.880;2023-01-28T11:28:40;98768.06;;;13.47;48.44
38880;BME280;25887;30.194;-97.880;2023-01-28T11:31:07;98766.31;;;13.46;48.46
38880;BME280;25887;30.194;-97.880;2023-01-28T11:36:05;98756.03;;;13.48;48.51
38880;BME280;25887;30.194;-97.880;2023-01-28T11:38:31;98747.41;;;13.47;48.71
38880;BME280;25887;30.194;-97.880;2023-01-28T11:40:58;98743.97;;;13.47;48.34
38880;BME280;25887;30.194;-97.880;2023-01-28T11:43:26;98736.25;;;13.44;48.82
38880;BME280;25887;30.194;-97.880;2023-01-28T11:46:07;98741.41;;;13.44;48.81
38880;BME280;25887;30.194;-97.880;2023-01-28T11:51:03;98744.84;;;13.43;48.47
38880;BME280;25887;30.194;-97.880;2023-01-28T12:04:48;98739.72;;;13.41;48.50
38880;BME280;25887;30.194;-97.880;2023-01-28T12:09:48;98736.28;;;13.41;48.98
38880;BME280;25887;30.194;-97.880;2023-01-28T12:15:04;98732.84;;;13.40;48.96
38880;BME280;25887;30.194;-97.880;2023-01-28T12:20:17;98707.03;;;13.38;49.05
38880;BME280;25887;30.194;-97.880;2023-01-28T12:22:50;98712.19;;;13.37;48.78
38880;BME280;25887;30.194;-97.880;2023-01-28T12:27:57;98713.91;;;13.36;49.15
38880;BME280;25887;30.194;-97.880;2023-01-28T12:30:30;98724.25;;;13.35;49.23
38880;BME280;25887;30.194;-97.880;2023-01-28T12:33:14;98731.13;;;13.36;49.09
38880;BME280;25887;30.194;-97.880;2023-01-28T12:41:21;98737.13;;;13.36;49.39
38880;BME280;25887;30.194;-97.880;2023-01-28T12:46:24;98746.59;;;13.41;49.37
38880;BME280;25887;30.194;-97.880;2023-01-28T12:49:33;98743.13;;;13.42;49.08
38880;BME280;25887;30.194;-97.880;2023-01-28T12:51:49;98744.00;;;13.42;49.09
38880;BME280;25887;30.194;-97.880;2023-01-28T12:55:02;98745.69;;;13.45;49.45
38880;BME280;25887;30.194;-97.880;2023-01-28T12:57:12;98735.38;;;13.45;49.39
38880;BME280;25887;30.194;-97.880;2023-01-28T12:59:41;98749.16;;;13.47;49.10
38880;BME280;25887;30.194;-97.880;2023-01-28T13:04:59;98739.66;;;13.49;49.16
38880;BME280;25887;30.194;-97.880;2023-01-28T13:13:32;98736.22;;;13.50;49.10
38880;BME280;25887;30.194;-97.880;2023-01-28T13:16:02;98726.75;;;13.50;49.34
38880;BME280;25887;30.194;-97.880;2023-01-28T13:18:30;98726.75;;;13.50;49.54
38880;BME280;25887;30.194;-97.880;2023-01-28T13:20:56;98728.44;;;13.51;49.45
38880;BME280;25887;30.194;-97.880;2023-01-28T13:25:54;98737.03;;;13.53;49.32
38880;BME280;25887;30.194;-97.880;2023-01-28T13:28:30;98736.19;;;13.53;49.44
38880;BME280;25887;30.194;-97.880;2023-01-28T13:31:35;98730.16;;;13.52;49.65
38880;BME280;25887;30.194;-97.880;2023-01-28T13:36:28;98735.34;;;13.49;49.83
38880;BME280;25887;30.194;-97.880;2023-01-28T13:41:37;98737.91;;;13.51;49.88
38880;BME280;25887;30.194;-97.880;2023-01-28T13:44:03;98740.50;;;13.51;49.67
38880;BME280;25887;30.194;-97.880;2023-01-28T13:46:29;98738.78;;;13.51;49.55
38880;BME280;25887;30.194;-97.880;2023-01-28T13:48:56;98741.38;;;13.50;49.47
38880;BME280;25887;30.194;-97.880;2023-01-28T13:51:28;98735.34;;;13.51;49.82
38880;BME280;25887;30.194;-97.880;2023-01-28T13:56:22;98753.41;;;13.52;49.60
38880;BME280;25887;30.194;-97.880;2023-01-28T13:59:10;98756.81;;;13.53;49.96
38880;BME280;25887;30.194;-97.880;2023-01-28T14:04:31;98768.88;;;13.54;49.76
38880;BME280;25887;30.194;-97.880;2023-01-28T14:19:49;98763.66;;;13.60;49.87
38880;BME280;25887;30.194;-97.880;2023-01-28T14:22:16;98771.41;;;13.61;49.96
38880;BME280;25887;30.194;-97.880;2023-01-28T14:25:03;98774.84;;;13.63;49.95
38880;BME280;25887;30.194;-97.880;2023-01-28T14:27:37;98764.50;;;13.65;50.12
38880;BME280;25887;30.194;-97.880;2023-01-28T14:32:29;98773.94;;;13.69;50.06
38880;BME280;25887;30.194;-97.880;2023-01-28T14:34:57;98778.25;;;13.72;50.09
38880;BME280;25887;30.194;-97.880;2023-01-28T14:37:24;98777.34;;;13.74;50.36
38880;BME280;25887;30.194;-97.880;2023-01-28T14:39:51;98775.63;;;13.78;50.28
38880;BME280;25887;30.194;-97.880;2023-01-28T14:42:37;98769.59;;;13.80;50.13
38880;BME280;25887;30.194;-97.880;2023-01-28T14:47:45;98776.44;;;13.84;50.42
38880;BME280;25887;30.194;-97.880;2023-01-28T14:50:29;98778.16;;;13.87;50.55
38880;BME280;25887;30.194;-97.880;2023-01-28T14:58:18;98792.72;;;13.96;50.60
38880;BME280;25887;30.194;-97.880;2023-01-28T15:00:52;98793.56;;;13.98;50.23
38880;BME280;25887;30.194;-97.880;2023-01-28T15:03:18;98799.56;;;14.00;50.27
38880;BME280;25887;30.194;-97.880;2023-01-28T15:05:44;98799.56;;;14.03;50.42
38880;BME280;25887;30.194;-97.880;2023-01-28T15:08:20;98802.13;;;14.06;50.38
38880;BME280;25887;30.194;-97.880;2023-01-28T15:10:46;98803.81;;;14.08;50.56
38880;BME280;25887;30.194;-97.880;2023-01-28T15:13:31;98799.50;;;14.12;50.43
38880;BME280;25887;30.194;-97.880;2023-01-28T15:15:59;98796.88;;;14.15;50.41
38880;BME280;25887;30.194;-97.880;2023-01-28T15:18:29;98802.91;;;14.17;50.74
38880;BME280;25887;30.194;-97.880;2023-01-28T15:20:55;98794.25;;;14.21;50.81
38880;BME280;25887;30.194;-97.880;2023-01-28T15:23:50;98792.50;;;14.23;50.65
38880;BME280;25887;30.194;-97.880;2023-01-28T15:26:24;98791.63;;;14.26;50.34
38880;BME280;25887;30.194;-97.880;2023-01-28T15:28:51;98784.72;;;14.28;50.52
38880;BME280;25887;30.194;-97.880;2023-01-28T15:31:18;98783.81;;;14.30;50.62
38880;BME280;25887;30.194;-97.880;2023-01-28T15:33:44;98777.78;;;14.33;50.48
38880;BME280;25887;30.194;-97.880;2023-01-28T15:36:10;98778.59;;;14.36;50.68
38880;BME280;25887;30.194;-97.880;2023-01-28T15:38:36;98771.69;;;14.40;50.74
38880;BME280;25887;30.194;-97.880;2023-01-28T15:41:02;98774.22;;;14.44;50.50
38880;BME280;25887;30.194;-97.880;2023-01-28T15:43:35;98779.44;;;14.47;50.72
38880;BME280;25887;30.194;-97.880;2023-01-28T15:46:02;98787.97;;;14.53;50.79
38880;BME280;25887;30.194;-97.880;2023-01-28T15:48:29;98792.25;;;14.57;50.64
38880;BME280;25887;30.194;-97.880;2023-01-28T15:51:05;98787.91;;;14.59;50.52
38880;BME280;25887;30.194;-97.880;2023-01-28T15:53:40;98779.25;;;14.63;50.72
38880;BME280;25887;30.194;-97.880;2023-01-28T15:56:13;98784.41;;;14.66;50.91
38880;BME280;25887;30.194;-97.880;2023-01-28T16:01:42;98798.16;;;14.69;51.10
38880;BME280;25887;30.194;-97.880;2023-01-28T16:04:41;98802.47;;;14.72;50.90
38880;BME280;25887;30.194;-97.880;2023-01-28T16:07:07;98808.44;;;14.75;51.21
38880;BME280;25887;30.194;-97.880;2023-01-28T16:09:43;98810.13;;;14.78;51.16
38880;BME280;25887;30.194;-97.880;2023-01-28T16:12:16;98817.03;;;14.81;51.12